Latest Weather Observations for Jervois

IDD60801

Issued at 7:31 pm CST Friday 27 March 2015 (issued every 30 minutes, with the page automatically refreshed every 10 minutes)

About weather observations | Map of weather stations | Latest weather observations for NT | Other Formats
Station Details ID: 015602 Name: JERVOIS Lat: -22.95 Lon: 136.14 Height: 328.0 m
Data from the previous 72 hours. | See also: Recent months at Jervois
Date/Time
CST
Temp
°C
App
Temp
°C
Dew
Point
Rel
Hum
%
Delta-T
°C
Wind Press
QNH
hPa
Press
MSL
hPa
Rain
since 9 am
mm
Dir
 
Spd
km/h
Gust
km/h
Spd
kts
Gust
kts
27/06:00pm 27.5 21.2 -4.3 12 14.0 SE 20 24 11 13 1019.6 1017.7 -
27/05:30pm 25.7 20.4 -3.3 14 12.8 SE 15 24 8 13 1020.2 - 0.0
27/05:00pm 26.5 20.3 -4.6 12 13.5 SE 19 26 10 14 1020.0 - 0.0
27/04:30pm 27.1 20.9 -4.4 12 13.8 ESE 19 30 10 16 1019.8 - 0.0
27/04:00pm 28.0 21.3 -4.4 11 14.3 SE 22 30 12 16 1019.5 - 0.0
27/03:30pm 28.3 22.1 -3.5 12 14.3 SE 20 32 11 17 1019.4 - 0.0
27/03:00pm 29.0 23.1 -2.6 12 14.5 SE 19 33 10 18 1019.2 1017.9 0.0
27/02:30pm 28.9 22.3 -3.3 12 14.6 SE 22 33 12 18 1019.3 - 0.0
27/02:00pm 29.4 22.5 -2.4 12 14.7 SSE 24 39 13 21 1019.4 - 0.0
27/01:30pm 28.6 22.5 -2.2 13 14.2 SE 20 33 11 18 1019.7 - 0.0
27/01:00pm 28.7 23.3 -1.5 14 14.1 SE 17 32 9 17 1019.9 - 0.0
27/12:30pm 28.7 22.3 -1.5 14 14.1 SE 22 33 12 18 1020.4 - 0.0
27/12:00pm 25.8 19.3 0.0 18 12.1 SE 24 35 13 19 1020.9 1021.1 0.0
27/11:30am 26.8 20.9 -0.5 16 12.8 SE 20 33 11 18 1021.3 - 0.0
27/11:00am 26.4 20.5 -0.7 17 12.6 SE 20 32 11 17 1022.1 - 0.0
27/10:30am 26.0 19.4 -0.4 17 12.4 SE 24 37 13 20 1022.7 - 0.0
27/10:00am 25.1 18.6 0.0 19 11.7 SE 24 33 13 18 1023.4 - 0.0
27/09:30am 24.7 18.5 -0.5 19 11.7 SE 22 35 12 19 1023.7 - 0.0
27/09:00am 21.5 15.0 0.1 24 9.7 SE 24 35 13 19 1024.4 1023.2 0.0
27/08:00am 22.3 15.5 0.6 23 10.1 SE 26 37 14 20 1024.9 - 0.0
27/07:30am 21.7 15.2 0.2 24 9.8 SE 24 33 13 18 1025.1 - 0.0
27/07:00am 20.7 15.0 0.4 26 9.3 SSE 20 30 11 16 1025.1 - 0.0
27/06:30am 19.0 13.2 0.1 28 8.4 SSE 20 33 11 18 1024.8 - 0.0
27/06:00am 16.8 12.8 2.7 39 6.5 S 13 13 7 7 1024.1 1022.2 0.0
27/05:30am 17.3 12.6 0.9 33 7.3 SSE 15 24 8 13 1024.5 - 0.0
27/05:00am 16.8 11.9 1.7 36 6.8 SSE 17 22 9 12 1024.2 - 0.0
27/04:30am 16.7 12.6 2.2 37 6.6 S 13 19 7 10 1024.2 - 0.0
27/04:00am 17.2 13.1 2.1 36 6.9 SSE 13 19 7 10 1023.9 - 0.0
27/03:30am 17.5 13.4 2.2 36 7.0 SSE 13 19 7 10 1023.7 - 0.0
27/03:00am 19.2 14.0 2.2 32 7.9 S 19 20 10 11 1023.6 1021.4 0.0
27/02:30am 18.2 13.8 2.5 35 7.3 SSE 15 24 8 13 1023.2 - 0.0
27/02:00am 18.7 13.4 2.0 32 7.7 SSE 19 28 10 15 1023.2 - 0.0
27/01:30am 19.0 14.5 2.2 32 7.8 S 15 24 8 13 1023.3 - 0.0
27/01:00am 19.4 14.5 2.2 32 8.0 SSE 17 24 9 13 1023.4 - 0.0
27/12:30am 19.8 14.5 1.9 30 8.3 SSE 19 28 10 15 1023.6 - 0.0
27/12:00am 21.5 16.5 1.3 26 9.4 SSE 17 22 9 12 1024.1 1022.2 0.0
 
Date/Time
CST
Temp
°C
App
Temp
°C
Dew
Point
Rel
Hum
%
Delta-T
°C
Wind Press
QNH
hPa
Press
MSL
hPa
Rain
since 9 am
mm
Dir
 
Spd
km/h
Gust
km/h
Spd
kts
Gust
kts
26/11:30pm 20.5 15.5 1.5 28 8.8 SSE 17 28 9 15 1023.8 - 0.0
26/11:00pm 20.9 15.9 1.2 27 9.1 SSE 17 24 9 13 1023.8 - 0.0
26/10:30pm 21.3 16.6 1.2 26 9.3 SSE 15 20 8 11 1024.1 - 0.0
26/10:00pm 21.7 17.1 1.3 26 9.5 SSE 15 20 8 11 1024.0 - 0.0
26/09:30pm 22.3 17.1 0.3 23 10.1 SSE 17 24 9 13 1024.0 - 0.0
26/09:00pm 24.2 18.9 -0.8 19 11.4 SSE 17 24 9 13 1023.9 1021.5 0.0
26/08:30pm 23.1 17.9 0.0 21 10.6 SSE 17 24 9 13 1023.8 - 0.0
26/08:00pm 23.6 17.9 -0.5 20 11.0 SSE 19 28 10 15 1023.6 - 0.0
26/07:30pm 24.1 18.4 -1.0 19 11.4 SSE 19 26 10 14 1023.5 - 0.0
26/07:00pm 24.4 19.0 -1.1 18 11.6 SSE 17 22 9 12 1023.2 - 0.0
26/06:30pm 25.0 19.5 -1.9 17 12.1 SSE 17 26 9 14 1022.9 - 0.0
26/06:00pm 27.5 20.3 -1.9 14 13.5 SSE 26 28 14 15 1022.5 1019.3 0.0
26/05:30pm 25.8 20.0 -0.4 18 12.2 SSE 20 32 11 17 1022.2 - 0.0
26/05:00pm 26.5 19.8 -1.3 16 12.8 SSE 24 35 13 19 1021.9 - 0.0
26/04:30pm 27.2 20.9 -0.9 16 13.1 SSE 22 35 12 19 1021.5 - 0.0
26/04:00pm 28.0 21.6 -1.5 14 13.7 SSE 22 35 12 19 1021.0 - 0.0
26/03:30pm 28.5 21.2 -2.5 13 14.2 SSE 26 44 14 24 1020.7 - 0.0
26/03:00pm 29.8 22.5 -2.8 12 15.0 SE 26 41 14 22 1020.6 1018.8 0.0
26/02:30pm 29.6 21.6 -2.4 12 14.8 SSE 30 43 16 23 1020.4 - 0.0
26/02:00pm 29.3 21.6 -2.7 12 14.7 SSE 28 43 15 23 1020.5 - 0.0
26/01:30pm 29.6 22.3 -2.9 12 14.9 SSE 26 39 14 21 1020.6 - 0.0
26/01:00pm 29.2 21.9 -3.0 12 14.7 S 26 39 14 21 1020.8 - 0.0
26/12:30pm 29.1 21.4 -3.3 12 14.7 SE 28 43 15 23 1021.2 - 0.0
26/12:12pm 29.1 21.3 -3.8 11 14.8 SSE 28 46 15 25 1021.3 - 0.0
26/12:00pm 26.6 18.6 -2.0 15 13.0 ESE 30 44 16 24 1021.7 1021.7 0.0
26/11:30am 28.6 21.2 -3.3 12 14.5 SSE 26 39 14 21 1022.3 - 0.0
26/11:00am 27.8 20.2 -2.1 14 13.8 SE 28 43 15 23 1022.8 - 0.0
26/10:30am 27.0 19.4 -1.9 15 13.3 SE 28 41 15 22 1023.4 - 0.0
26/10:00am 27.1 20.0 -1.2 15 13.2 SE 26 41 14 22 1023.9 - 0.0
26/09:30am 26.0 18.9 -1.3 16 12.6 SE 26 37 14 20 1024.4 - 0.0
26/09:00am 22.5 14.4 -0.1 22 10.3 SE 32 39 17 21 1024.7 1022.6 0.0
26/08:30am 24.8 17.8 -0.3 19 11.7 SE 26 41 14 22 1024.8 - 0.0
26/08:00am 23.7 16.3 -0.7 20 11.2 SE 28 43 15 23 1024.9 - 0.0
26/07:30am 23.1 15.4 0.0 21 10.6 SE 30 46 16 25 1024.7 - 0.0
26/07:00am 22.7 15.0 -0.1 22 10.5 SE 30 48 16 26 1024.1 - 0.0
26/06:49am 23.0 15.6 -0.6 21 10.7 SSE 28 46 15 25 1024.0 - 0.0
26/06:30am 22.1 16.3 -0.1 23 10.1 SSE 20 35 11 19 1024.0 - 0.0
26/06:00am 17.7 14.0 -0.1 30 7.8 SSE 9 24 5 13 1023.8 1020.8 0.0
26/05:30am 17.9 14.3 0.3 30 7.8 S 9 13 5 7 1023.4 - 0.0
26/05:00am 17.5 13.9 0.3 31 7.6 SSE 9 13 5 7 1023.0 - 0.0
26/04:30am 17.5 13.9 0.6 32 7.5 SSE 9 11 5 6 1022.9 - 0.0
26/04:00am 18.0 13.9 -0.3 29 8.0 SSE 11 15 6 8 1022.4 - 0.0
26/03:30am 18.2 14.0 -0.6 28 8.2 SSE 11 15 6 8 1022.0 - 0.0
26/03:00am 19.2 15.4 -1.0 25 8.8 SSE 9 17 5 9 1021.8 1019.5 0.0
26/02:30am 18.5 14.7 -0.4 28 8.3 SSE 9 11 5 6 1021.7 - 0.0
26/02:00am 19.3 15.5 -1.1 25 8.9 SSE 9 13 5 7 1021.6 - 0.0
26/01:30am 19.3 15.9 -0.4 26 8.7 SSE 7 11 4 6 1021.6 - 0.0
26/01:00am 20.3 15.6 -1.9 22 9.6 SE 13 19 7 10 1021.4 - 0.0
26/12:30am 20.7 16.0 -1.9 22 9.8 SE 13 17 7 9 1021.5 - 0.0
26/12:00am 21.6 17.8 -1.1 22 10.1 SSE 9 20 5 11 1021.6 1019.8 0.0
 
Date/Time
CST
Temp
°C
App
Temp
°C
Dew
Point
Rel
Hum
%
Delta-T
°C
Wind Press
QNH
hPa
Press
MSL
hPa
Rain
since 9 am
mm
Dir
 
Spd
km/h
Gust
km/h
Spd
kts
Gust
kts
25/11:30pm 21.3 16.9 -2.2 20 10.2 SSE 11 17 6 9 1021.5 - 0.0
25/11:00pm 21.7 17.8 -1.8 20 10.3 SSE 9 13 5 7 1021.7 - 0.0
25/10:30pm 22.3 18.4 -1.7 20 10.6 SSE 9 13 5 7 1021.9 - 0.0
25/10:00pm 23.1 18.3 -2.4 18 11.2 SSE 13 17 7 9 1021.9 - 0.0
25/09:30pm 23.8 19.4 -2.1 18 11.5 SE 11 15 6 8 1021.8 - 0.0
25/09:00pm 25.4 19.8 -2.7 15 12.5 SSE 17 19 9 10 1021.9 1019.5 0.0
25/08:30pm 25.1 19.9 -2.5 16 12.3 SSE 15 24 8 13 1021.6 - 0.0
25/08:00pm 25.5 20.3 -2.9 15 12.6 SSE 15 24 8 13 1021.4 - 0.0
25/07:30pm 25.9 20.6 -3.3 14 12.9 SSE 15 24 8 13 1021.2 - 0.0
25/07:00pm 26.3 21.0 -3.2 14 13.1 SSE 15 24 8 13 1020.6 - 0.0
25/06:30pm 27.0 20.8 -4.7 12 13.8 SSE 19 28 10 15 1020.2 - 0.0
25/06:00pm 28.6 21.9 -4.2 11 14.6 SE 22 28 12 15 1019.7 1017.1 0.0
25/05:30pm 28.3 21.9 -4.6 11 14.5 SE 20 30 11 16 1019.2 - 0.0
25/05:00pm 29.1 23.2 -2.3 13 14.5 SSE 19 28 10 15 1018.9 - 0.0
25/04:30pm 29.5 22.8 -1.2 13 14.5 SSE 24 35 13 19 1018.6 - 0.0
25/04:00pm 29.7 22.9 -1.6 13 14.7 SSE 24 33 13 18 1018.3 - 0.0
25/03:30pm 30.0 23.3 -0.8 13 14.7 S 24 37 13 20 1018.1 - 0.0
25/03:00pm 30.0 23.9 0.1 14 14.5 SSE 22 41 12 22 1018.0 1016.2 0.0
25/02:30pm 30.4 23.8 -0.6 13 14.9 SSE 24 39 13 21 1018.3 - 0.0
25/02:00pm 29.8 23.5 -0.8 14 14.6 SSE 22 33 12 18 1018.6 - 0.0
25/01:30pm 29.5 23.2 -0.7 14 14.4 SE 22 32 12 17 1018.8 - 0.0
25/01:00pm 29.5 23.6 -0.7 14 14.4 SSE 20 33 11 18 1019.3 - 0.0
25/12:30pm 29.1 23.2 -0.9 14 14.2 SSE 20 33 11 18 1019.7 - 0.0
25/12:00pm 27.3 21.4 -0.6 16 13.1 SSE 20 32 11 17 1020.3 1018.5 0.0
25/11:30am 27.2 21.6 0.0 17 12.9 SSE 19 30 10 16 1020.7 - 0.0
25/11:00am 25.8 19.9 -0.8 17 12.3 SE 20 30 11 16 1021.2 - 0.0
25/10:30am 25.2 19.4 -0.1 19 11.8 SE 20 30 11 16 1021.5 - 0.0
25/10:00am 24.5 18.7 -0.1 19 11.4 SE 20 30 11 16 1021.9 - 0.0
25/09:30am 23.9 18.3 1.3 22 10.7 SSE 20 30 11 16 1021.9 - 0.0
25/09:00am 22.3 16.7 1.4 25 9.8 SE 20 30 11 16 1021.3 1019.2 0.0
25/08:30am 21.3 15.7 1.3 26 9.3 SSE 20 26 11 14 1021.0 - 0.0
25/08:00am 20.6 15.8 2.4 30 8.6 SE 17 24 9 13 1020.9 - 0.0
25/07:30am 19.8 17.1 3.6 34 7.8 ESE 7 11 4 6 1020.8 - 0.0
25/07:00am 18.8 16.2 4.1 37 7.1 SSE 7 13 4 7 1020.3 - 0.0
25/06:30am 18.1 14.6 3.6 38 6.9 S 11 15 6 8 1019.6 - 0.0
25/06:00am 18.7 15.2 3.6 36 7.2 SSE 11 15 6 8 1019.6 1017.6 0.0
25/05:30am 19.0 15.5 3.5 35 7.4 SSE 11 15 6 8 1019.1 - 0.0
25/05:00am 19.4 15.5 3.5 35 7.6 SSE 13 20 7 11 1018.7 - 0.0
25/04:30am 19.6 16.2 3.9 35 7.6 SSE 11 17 6 9 1018.7 - 0.0
25/04:00am 20.0 15.7 3.3 33 8.0 SSE 15 20 8 11 1018.5 - 0.0
25/03:30am 20.3 16.5 3.8 33 8.0 SSE 13 22 7 12 1018.6 - 0.0
25/03:00am 20.9 16.3 3.6 32 8.4 SSE 17 22 9 12 1018.7 1016.7 0.0
25/02:30am 21.2 17.1 4.4 33 8.3 SSE 15 20 8 11 1019.0 - 0.0
25/02:00am 21.7 17.2 4.3 32 8.6 SSE 17 26 9 14 1019.0 - 0.0
25/01:30am 22.0 18.0 4.8 32 8.6 SSE 15 20 8 11 1019.4 - 0.0
25/01:00am 21.9 18.8 5.5 34 8.3 SSE 11 15 6 8 1019.5 - 0.0
25/12:30am 22.3 19.2 5.6 33 8.5 SSE 11 15 6 8 1019.7 - 0.0
25/12:00am 22.7 19.7 5.9 33 8.6 SSE 11 15 6 8 1019.8 1017.9 0.0
 
Date/Time
CST
Temp
°C
App
Temp
°C
Dew
Point
Rel
Hum
%
Delta-T
°C
Wind Press
QNH
hPa
Press
MSL
hPa
Rain
since 9 am
mm
Dir
 
Spd
km/h
Gust
km/h
Spd
kts
Gust
kts
24/11:30pm 23.3 19.9 5.8 32 9.0 SSE 13 20 7 11 1019.7 - 0.0
24/11:00pm 23.6 20.2 5.7 31 9.2 SSE 13 20 7 11 1019.8 - 0.0
24/10:30pm 24.0 20.6 6.0 31 9.3 SSE 13 19 7 10 1019.7 - 0.0
24/10:00pm 24.7 20.9 5.8 29 9.8 SSE 15 22 8 12 1019.5 - 0.0
24/09:30pm 25.1 20.9 5.9 29 10.0 SSE 17 26 9 14 1019.3 - 0.0
24/09:00pm 25.2 22.3 6.3 29 9.9 SSE 11 20 6 11 1019.0 1016.9 0.0
24/08:30pm 25.7 22.3 5.7 27 10.4 SSE 13 20 7 11 1018.9 - 0.0
24/08:00pm 26.1 22.7 6.1 28 10.5 SSE 13 20 7 11 1018.5 - 0.0

Other Formats:

Comma delimited format used in spreadsheet applications
http://www.bom.gov.au/fwo/IDD60801/IDD60801.94327.axf

JavaScript Object Notation format (JSON) in row-major order
http://www.bom.gov.au/fwo/IDD60801/IDD60801.94327.json